sensor_id;sensor_type;location;lat;lon;timestamp;temperature;humidity
10411;DHT22;5251;52.112;8.606;2024-03-23T00:53:44;10.80;98.70
10411;DHT22;5251;52.112;8.606;2024-03-23T00:56:10;10.80;99.00
10411;DHT22;5251;52.112;8.606;2024-03-23T00:58:35;10.80;98.60
10411;DHT22;5251;52.112;8.606;2024-03-23T01:01:01;10.80;98.40
10411;DHT22;5251;52.112;8.606;2024-03-23T01:03:29;10.70;98.40
10411;DHT22;5251;52.112;8.606;2024-03-23T01:05:58;10.70;98.70
10411;DHT22;5251;52.112;8.606;2024-03-23T01:08:23;10.70;98.80
10411;DHT22;5251;52.112;8.606;2024-03-23T01:11:00;10.70;98.80
10411;DHT22;5251;52.112;8.606;2024-03-23T01:13:26;10.70;99.10
10411;DHT22;5251;52.112;8.606;2024-03-23T01:15:53;10.70;99.00
10411;DHT22;5251;52.112;8.606;2024-03-23T01:18:20;10.70;99.10
10411;DHT22;5251;52.112;8.606;2024-03-23T01:20:46;10.70;99.00
10411;DHT22;5251;52.112;8.606;2024-03-23T01:23:12;10.70;98.90
10411;DHT22;5251;52.112;8.606;2024-03-23T01:25:38;10.60;98.70
10411;DHT22;5251;52.112;8.606;2024-03-23T01:28:04;10.60;98.90
10411;DHT22;5251;52.112;8.606;2024-03-23T01:30:30;10.60;98.90
10411;DHT22;5251;52.112;8.606;2024-03-23T01:32:56;10.60;99.00
10411;DHT22;5251;52.112;8.606;2024-03-23T01:35:21;10.60;99.10
10411;DHT22;5251;52.112;8.606;2024-03-23T01:37:47;10.50;99.10
10411;DHT22;5251;52.112;8.606;2024-03-23T01:40:12;10.60;99.20
10411;DHT22;5251;52.112;8.606;2024-03-23T01:42:41;10.60;99.20
10411;DHT22;5251;52.112;8.606;2024-03-23T01:45:08;10.60;99.20
10411;DHT22;5251;52.112;8.606;2024-03-23T01:47:35;10.60;99.30
10411;DHT22;5251;52.112;8.606;2024-03-23T01:50:01;10.60;99.30
10411;DHT22;5251;52.112;8.606;2024-03-23T01:52:27;10.60;99.20
10411;DHT22;5251;52.112;8.606;2024-03-23T01:54:53;10.60;99.20
10411;DHT22;5251;52.112;8.606;2024-03-23T01:57:19;10.60;99.10
10411;DHT22;5251;52.112;8.606;2024-03-23T01:59:46;10.60;98.90
10411;DHT22;5251;52.112;8.606;2024-03-23T02:02:12;10.60;98.80
10411;DHT22;5251;52.112;8.606;2024-03-23T02:04:38;10.60;98.80
10411;DHT22;5251;52.112;8.606;2024-03-23T02:07:05;10.60;98.60
10411;DHT22;5251;52.112;8.606;2024-03-23T02:09:31;10.50;98.70
10411;DHT22;5251;52.112;8.606;2024-03-23T02:11:57;10.50;98.80
10411;DHT22;5251;52.112;8.606;2024-03-23T02:14:23;10.60;98.90
10411;DHT22;5251;52.112;8.606;2024-03-23T02:16:49;10.60;98.90
10411;DHT22;5251;52.112;8.606;2024-03-23T02:19:14;10.60;99.10
10411;DHT22;5251;52.112;8.606;2024-03-23T02:21:40;10.60;99.10
10411;DHT22;5251;52.112;8.606;2024-03-23T02:24:05;10.60;99.10
10411;DHT22;5251;52.112;8.606;2024-03-23T02:26:31;10.60;99.10
10411;DHT22;5251;52.112;8.606;2024-03-23T02:28:57;10.60;98.80
10411;DHT22;5251;52.112;8.606;2024-03-23T02:31:22;10.60;98.80
10411;DHT22;5251;52.112;8.606;2024-03-23T02:33:48;10.60;98.70
10411;DHT22;5251;52.112;8.606;2024-03-23T02:36:14;10.60;98.50
10411;DHT22;5251;52.112;8.606;2024-03-23T02:38:39;10.60;98.30
10411;DHT22;5251;52.112;8.606;2024-03-23T02:41:05;10.50;98.20
10411;DHT22;5251;52.112;8.606;2024-03-23T02:43:31;10.50;98.00
10411;DHT22;5251;52.112;8.606;2024-03-23T02:45:56;10.40;97.80
10411;DHT22;5251;52.112;8.606;2024-03-23T02:48:22;10.40;97.80
10411;DHT22;5251;52.112;8.606;2024-03-23T02:50:49;10.40;98.10
10411;DHT22;5251;52.112;8.606;2024-03-23T02:53:14;10.40;98.10
10411;DHT22;5251;52.112;8.606;2024-03-23T02:55:40;10.40;98.20
10411;DHT22;5251;52.112;8.606;2024-03-23T02:58:05;10.40;98.10
10411;DHT22;5251;52.112;8.606;2024-03-23T03:00:31;10.40;98.20
10411;DHT22;5251;52.112;8.606;2024-03-23T03:02:57;10.30;98.10
10411;DHT22;5251;52.112;8.606;2024-03-23T03:05:22;10.30;98.30
10411;DHT22;5251;52.112;8.606;2024-03-23T03:07:50;10.30;98.60
10411;DHT22;5251;52.112;8.606;2024-03-23T03:10:16;10.30;98.50
10411;DHT22;5251;52.112;8.606;2024-03-23T03:12:41;10.30;98.60
10411;DHT22;5251;52.112;8.606;2024-03-23T03:15:08;10.30;98.40
10411;DHT22;5251;52.112;8.606;2024-03-23T03:17:35;10.30;98.30
10411;DHT22;5251;52.112;8.606;2024-03-23T03:20:00;10.20;98.40
10411;DHT22;5251;52.112;8.606;2024-03-23T03:22:26;10.20;98.40
10411;DHT22;5251;52.112;8.606;2024-03-23T03:24:51;10.20;98.30
10411;DHT22;5251;52.112;8.606;2024-03-23T03:27:17;10.20;98.20
10411;DHT22;5251;52.112;8.606;2024-03-23T03:29:43;10.20;98.10
10411;DHT22;5251;52.112;8.606;2024-03-23T03:32:08;10.10;98.00
10411;DHT22;5251;52.112;8.606;2024-03-23T03:34:34;10.10;98.20
10411;DHT22;5251;52.112;8.606;2024-03-23T03:39:26;10.00;97.90
10411;DHT22;5251;52.112;8.606;2024-03-23T03:41:52;10.00;98.00
10411;DHT22;5251;52.112;8.606;2024-03-23T03:44:17;10.00;98.10
10411;DHT22;5251;52.112;8.606;2024-03-23T03:46:43;10.00;98.40
10411;DHT22;5251;52.112;8.606;2024-03-23T03:49:09;10.00;98.60
10411;DHT22;5251;52.112;8.606;2024-03-23T03:51:35;10.00;98.40
10411;DHT22;5251;52.112;8.606;2024-03-23T03:54:00;10.00;98.40
10411;DHT22;5251;52.112;8.606;2024-03-23T03:56:26;10.00;98.60
10411;DHT22;5251;52.112;8.606;2024-03-23T03:58:53;9.90;99.00
10411;DHT22;5251;52.112;8.606;2024-03-23T04:01:18;9.90;99.10
10411;DHT22;5251;52.112;8.606;2024-03-23T04:03:44;10.00;98.60
10411;DHT22;5251;52.112;8.606;2024-03-23T04:06:10;10.00;98.60
10411;DHT22;5251;52.112;8.606;2024-03-23T04:08:36;10.00;98.50
10411;DHT22;5251;52.112;8.606;2024-03-23T04:11:02;9.90;99.00
10411;DHT22;5251;52.112;8.606;2024-03-23T04:13:27;9.90;98.90
10411;DHT22;5251;52.112;8.606;2024-03-23T04:15:56;10.00;98.60
10411;DHT22;5251;52.112;8.606;2024-03-23T04:18:22;10.00;98.50
10411;DHT22;5251;52.112;8.606;2024-03-23T04:20:51;10.00;98.30
10411;DHT22;5251;52.112;8.606;2024-03-23T04:23:17;9.90;98.70
10411;DHT22;5251;52.112;8.606;2024-03-23T04:25:43;9.90;98.60
10411;DHT22;5251;52.112;8.606;2024-03-23T04:28:08;9.80;98.80
10411;DHT22;5251;52.112;8.606;2024-03-23T04:30:34;9.80;98.80
10411;DHT22;5251;52.112;8.606;2024-03-23T04:33:00;9.80;98.90
10411;DHT22;5251;52.112;8.606;2024-03-23T04:35:26;9.80;98.90
10411;DHT22;5251;52.112;8.606;2024-03-23T04:37:53;9.80;99.00
10411;DHT22;5251;52.112;8.606;2024-03-23T04:40:19;9.80;99.00
10411;DHT22;5251;52.112;8.606;2024-03-23T04:42:44;9.70;98.90
10411;DHT22;5251;52.112;8.606;2024-03-23T04:45:10;9.70;98.90
10411;DHT22;5251;52.112;8.606;2024-03-23T04:47:38;9.70;99.00
10411;DHT22;5251;52.112;8.606;2024-03-23T04:50:05;9.70;98.90
10411;DHT22;5251;52.112;8.606;2024-03-23T04:52:30;9.70;98.90
10411;DHT22;5251;52.112;8.606;2024-03-23T04:54:56;9.60;99.00
10411;DHT22;5251;52.112;8.606;2024-03-23T04:57:22;9.60;99.00
10411;DHT22;5251;52.112;8.606;2024-03-23T04:59:48;9.70;99.20
10411;DHT22;5251;52.112;8.606;2024-03-23T05:02:14;9.70;99.20
10411;DHT22;5251;52.112;8.606;2024-03-23T05:04:40;9.60;99.20
10411;DHT22;5251;52.112;8.606;2024-03-23T05:07:06;9.70;99.20
10411;DHT22;5251;52.112;8.606;2024-03-23T05:09:32;9.60;99.00
10411;DHT22;5251;52.112;8.606;2024-03-23T05:12:01;9.60;99.00
10411;DHT22;5251;52.112;8.606;2024-03-23T05:14:28;9.60;98.90
10411;DHT22;5251;52.112;8.606;2024-03-23T05:16:53;9.50;98.80
10411;DHT22;5251;52.112;8.606;2024-03-23T05:19:19;9.50;99.00
10411;DHT22;5251;52.112;8.606;2024-03-23T05:21:45;9.50;99.40
10411;DHT22;5251;52.112;8.606;2024-03-23T05:24:11;9.50;99.10
10411;DHT22;5251;52.112;8.606;2024-03-23T05:26:37;9.50;99.10
10411;DHT22;5251;52.112;8.606;2024-03-23T05:29:03;9.50;99.10
10411;DHT22;5251;52.112;8.606;2024-03-23T05:31:31;9.50;99.10
10411;DHT22;5251;52.112;8.606;2024-03-23T05:33:57;9.40;99.20
10411;DHT22;5251;52.112;8.606;2024-03-23T05:36:23;9.40;99.20
10411;DHT22;5251;52.112;8.606;2024-03-23T05:38:51;9.40;99.20
10411;DHT22;5251;52.112;8.606;2024-03-23T05:41:17;9.40;99.20
10411;DHT22;5251;52.112;8.606;2024-03-23T05:43:42;9.40;99.30
10411;DHT22;5251;52.112;8.606;2024-03-23T05:46:08;9.40;99.30
10411;DHT22;5251;52.112;8.606;2024-03-23T05:48:34;9.40;99.40
10411;DHT22;5251;52.112;8.606;2024-03-23T05:51:00;9.40;99.40
10411;DHT22;5251;52.112;8.606;2024-03-23T05:53:25;9.40;99.40
10411;DHT22;5251;52.112;8.606;2024-03-23T05:55:59;9.40;99.40
10411;DHT22;5251;52.112;8.606;2024-03-23T05:58:25;9.40;99.40
10411;DHT22;5251;52.112;8.606;2024-03-23T06:00:57;9.40;99.50
10411;DHT22;5251;52.112;8.606;2024-03-23T06:03:24;9.40;99.50
10411;DHT22;5251;52.112;8.606;2024-03-23T06:05:50;9.40;99.60
10411;DHT22;5251;52.112;8.606;2024-03-23T06:08:15;9.40;99.60
10411;DHT22;5251;52.112;8.606;2024-03-23T06:10:41;9.40;99.60
10411;DHT22;5251;52.112;8.606;2024-03-23T06:13:06;9.40;99.60
10411;DHT22;5251;52.112;8.606;2024-03-23T06:15:32;9.30;99.70
10411;DHT22;5251;52.112;8.606;2024-03-23T06:17:57;9.40;99.60
10411;DHT22;5251;52.112;8.606;2024-03-23T06:20:24;9.30;99.60
10411;DHT22;5251;52.112;8.606;2024-03-23T06:22:49;9.40;99.60
10411;DHT22;5251;52.112;8.606;2024-03-23T06:25:15;9.30;99.60
10411;DHT22;5251;52.112;8.606;2024-03-23T06:27:40;9.30;99.60
10411;DHT22;5251;52.112;8.606;2024-03-23T06:30:07;9.30;99.70
10411;DHT22;5251;52.112;8.606;2024-03-23T06:32:32;9.30;99.80
10411;DHT22;5251;52.112;8.606;2024-03-23T06:34:58;9.40;99.90
10411;DHT22;5251;52.112;8.606;2024-03-23T06:37:24;9.40;99.90
10411;DHT22;5251;52.112;8.606;2024-03-23T06:39:50;9.40;99.90
10411;DHT22;5251;52.112;8.606;2024-03-23T06:42:15;9.50;99.90
10411;DHT22;5251;52.112;8.606;2024-03-23T06:44:41;9.50;99.90
10411;DHT22;5251;52.112;8.606;2024-03-23T06:47:07;9.60;99.90
10411;DHT22;5251;52.112;8.606;2024-03-23T06:49:32;9.70;99.90
10411;DHT22;5251;52.112;8.606;2024-03-23T06:51:58;9.70;99.90
10411;DHT22;5251;52.112;8.606;2024-03-23T06:54:24;9.70;99.90
10411;DHT22;5251;52.112;8.606;2024-03-23T06:56:50;9.80;99.90
10411;DHT22;5251;52.112;8.606;2024-03-23T06:59:16;9.80;99.70
10411;DHT22;5251;52.112;8.606;2024-03-23T07:01:41;9.80;99.60
10411;DHT22;5251;52.112;8.606;2024-03-23T07:04:07;9.90;99.30
10411;DHT22;5251;52.112;8.606;2024-03-23T07:06:33;9.90;99.20
10411;DHT22;5251;52.112;8.606;2024-03-23T07:08:59;9.90;99.00
10411;DHT22;5251;52.112;8.606;2024-03-23T07:11:25;9.90;98.80
10411;DHT22;5251;52.112;8.606;2024-03-23T07:13:52;9.90;98.70
10411;DHT22;5251;52.112;8.606;2024-03-23T07:16:18;9.90;98.80
10411;DHT22;5251;52.112;8.606;2024-03-23T07:18:43;9.90;98.90
10411;DHT22;5251;52.112;8.606;2024-03-23T07:21:09;9.90;98.80
10411;DHT22;5251;52.112;8.606;2024-03-23T07:23:35;9.90;98.70
10411;DHT22;5251;52.112;8.606;2024-03-23T07:26:04;10.00;98.00
10411;DHT22;5251;52.112;8.606;2024-03-23T07:28:31;10.00;98.00
10411;DHT22;5251;52.112;8.606;2024-03-23T07:31:06;10.00;98.00
10411;DHT22;5251;52.112;8.606;2024-03-23T07:33:32;10.00;98.00
10411;DHT22;5251;52.112;8.606;2024-03-23T07:35:58;10.00;98.20
10411;DHT22;5251;52.112;8.606;2024-03-23T07:38:28;10.00;98.40
10411;DHT22;5251;52.112;8.606;2024-03-23T07:41:08;10.10;98.50
10411;DHT22;5251;52.112;8.606;2024-03-23T07:43:34;10.10;98.10
10411;DHT22;5251;52.112;8.606;2024-03-23T07:46:00;10.10;98.50
10411;DHT22;5251;52.112;8.606;2024-03-23T07:48:26;10.10;98.40
10411;DHT22;5251;52.112;8.606;2024-03-23T07:51:04;10.20;98.60
10411;DHT22;5251;52.112;8.606;2024-03-23T07:53:31;10.30;98.50
10411;DHT22;5251;52.112;8.606;2024-03-23T07:58:26;10.50;97.90
10411;DHT22;5251;52.112;8.606;2024-03-23T08:00:53;10.60;97.20
10411;DHT22;5251;52.112;8.606;2024-03-23T08:03:19;10.60;96.90
10411;DHT22;5251;52.112;8.606;2024-03-23T08:05:44;10.70;96.90
10411;DHT22;5251;52.112;8.606;2024-03-23T08:08:10;10.80;96.60
10411;DHT22;5251;52.112;8.606;2024-03-23T08:10:37;10.90;96.50
10411;DHT22;5251;52.112;8.606;2024-03-23T08:13:03;10.90;96.60
10411;DHT22;5251;52.112;8.606;2024-03-23T08:15:31;11.00;97.00
10411;DHT22;5251;52.112;8.606;2024-03-23T08:20:24;11.10;97.20
10411;DHT22;5251;52.112;8.606;2024-03-23T08:22:50;11.20;96.80
10411;DHT22;5251;52.112;8.606;2024-03-23T08:25:16;11.20;96.50
10411;DHT22;5251;52.112;8.606;2024-03-23T08:27:44;11.20;96.10
10411;DHT22;5251;52.112;8.606;2024-03-23T08:30:09;11.30;96.00
10411;DHT22;5251;52.112;8.606;2024-03-23T08:32:36;11.30;95.90
10411;DHT22;5251;52.112;8.606;2024-03-23T08:35:02;11.30;95.70
10411;DHT22;5251;52.112;8.606;2024-03-23T08:37:27;11.30;95.50
10411;DHT22;5251;52.112;8.606;2024-03-23T08:39:53;11.40;96.00
10411;DHT22;5251;52.112;8.606;2024-03-23T08:42:19;11.50;96.20
10411;DHT22;5251;52.112;8.606;2024-03-23T08:44:44;11.60;96.00
10411;DHT22;5251;52.112;8.606;2024-03-23T08:47:15;11.70;95.70
10411;DHT22;5251;52.112;8.606;2024-03-23T08:49:40;11.80;95.40
10411;DHT22;5251;52.112;8.606;2024-03-23T08:52:07;11.80;94.40
10411;DHT22;5251;52.112;8.606;2024-03-23T08:54:32;11.90;93.90
10411;DHT22;5251;52.112;8.606;2024-03-23T08:56:58;11.90;94.30
10411;DHT22;5251;52.112;8.606;2024-03-23T08:59:23;11.90;94.30
10411;DHT22;5251;52.112;8.606;2024-03-23T09:01:49;12.00;94.00
10411;DHT22;5251;52.112;8.606;2024-03-23T09:04:15;12.10;93.10
10411;DHT22;5251;52.112;8.606;2024-03-23T09:06:42;12.00;92.10
10411;DHT22;5251;52.112;8.606;2024-03-23T09:09:08;12.00;92.40
10411;DHT22;5251;52.112;8.606;2024-03-23T09:11:34;12.00;92.80
10411;DHT22;5251;52.112;8.606;2024-03-23T09:13:59;12.10;93.10
10411;DHT22;5251;52.112;8.606;2024-03-23T09:16:25;12.00;92.50
10411;DHT22;5251;52.112;8.606;2024-03-23T09:18:51;12.10;92.50
10411;DHT22;5251;52.112;8.606;2024-03-23T09:21:17;12.10;92.30
10411;DHT22;5251;52.112;8.606;2024-03-23T09:23:46;12.10;92.30
10411;DHT22;5251;52.112;8.606;2024-03-23T09:26:11;12.20;92.70
10411;DHT22;5251;52.112;8.606;2024-03-23T09:28:37;12.30;92.60
10411;DHT22;5251;52.112;8.606;2024-03-23T09:31:07;12.30;91.70
10411;DHT22;5251;52.112;8.606;2024-03-23T09:33:34;12.30;91.50
10411;DHT22;5251;52.112;8.606;2024-03-23T09:36:03;12.30;91.50
10411;DHT22;5251;52.112;8.606;2024-03-23T09:38:29;12.30;91.60
10411;DHT22;5251;52.112;8.606;2024-03-23T09:40:56;12.40;92.00
10411;DHT22;5251;52.112;8.606;2024-03-23T09:43:22;12.50;91.90
10411;DHT22;5251;52.112;8.606;2024-03-23T09:45:49;12.60;91.00
10411;DHT22;5251;52.112;8.606;2024-03-23T09:48:15;12.80;91.70
10411;DHT22;5251;52.112;8.606;2024-03-23T09:50:42;13.00;91.80
10411;DHT22;5251;52.112;8.606;2024-03-23T09:53:12;13.10;91.60
10411;DHT22;5251;52.112;8.606;2024-03-23T09:55:39;13.30;90.20
10411;DHT22;5251;52.112;8.606;2024-03-23T09:58:05;13.20;88.50
10411;DHT22;5251;52.112;8.606;2024-03-23T10:00:34;13.00;89.10
10411;DHT22;5251;52.112;8.606;2024-03-23T10:03:01;12.90;89.40
10411;DHT22;5251;52.112;8.606;2024-03-23T10:05:28;12.80;90.20
10411;DHT22;5251;52.112;8.606;2024-03-23T10:07:54;12.60;90.50
10411;DHT22;5251;52.112;8.606;2024-03-23T10:10:20;12.30;91.00
10411;DHT22;5251;52.112;8.606;2024-03-23T10:12:50;12.20;91.10
10411;DHT22;5251;52.112;8.606;2024-03-23T10:15:28;12.00;91.50
10411;DHT22;5251;52.112;8.606;2024-03-23T10:17:54;11.80;92.60
10411;DHT22;5251;52.112;8.606;2024-03-23T10:20:23;11.60;93.60
10411;DHT22;5251;52.112;8.606;2024-03-23T10:22:49;11.50;93.70
10411;DHT22;5251;52.112;8.606;2024-03-23T10:25:17;11.40;94.50
10411;DHT22;5251;52.112;8.606;2024-03-23T10:27:42;11.40;94.90
10411;DHT22;5251;52.112;8.606;2024-03-23T10:30:12;11.40;95.00
10411;DHT22;5251;52.112;8.606;2024-03-23T10:32:40;11.50;94.30
10411;DHT22;5251;52.112;8.606;2024-03-23T10:35:21;11.50;94.50
10411;DHT22;5251;52.112;8.606;2024-03-23T10:37:48;11.50;93.60
10411;DHT22;5251;52.112;8.606;2024-03-23T10:40:17;11.50;93.70
10411;DHT22;5251;52.112;8.606;2024-03-23T10:42:44;11.50;94.10
10411;DHT22;5251;52.112;8.606;2024-03-23T10:45:10;11.40;94.20
10411;DHT22;5251;52.112;8.606;2024-03-23T10:47:37;11.40;94.20
10411;DHT22;5251;52.112;8.606;2024-03-23T10:50:06;11.30;94.40
10411;DHT22;5251;52.112;8.606;2024-03-23T10:52:35;11.20;94.40
10411;DHT22;5251;52.112;8.606;2024-03-23T10:55:05;11.20;95.00
10411;DHT22;5251;52.112;8.606;2024-03-23T10:57:41;11.20;95.50
10411;DHT22;5251;52.112;8.606;2024-03-23T11:00:09;11.10;96.00
10411;DHT22;5251;52.112;8.606;2024-03-23T11:02:36;11.20;96.00
10411;DHT22;5251;52.112;8.606;2024-03-23T11:05:01;11.20;96.10
10411;DHT22;5251;52.112;8.606;2024-03-23T11:07:28;11.30;95.50
10411;DHT22;5251;52.112;8.606;2024-03-23T11:09:54;11.40;95.60
10411;DHT22;5251;52.112;8.606;2024-03-23T11:14:56;11.60;94.40
10411;DHT22;5251;52.112;8.606;2024-03-23T11:17:24;11.70;94.90
10411;DHT22;5251;52.112;8.606;2024-03-23T11:20:01;11.80;93.20
10411;DHT22;5251;52.112;8.606;2024-03-23T11:22:46;11.80;91.40
10411;DHT22;5251;52.112;8.606;2024-03-23T11:25:22;11.60;91.00
10411;DHT22;5251;52.112;8.606;2024-03-23T11:28:11;11.50;90.80
10411;DHT22;5251;52.112;8.606;2024-03-23T11:30:40;11.30;91.00
10411;DHT22;5251;52.112;8.606;2024-03-23T11:33:05;11.10;91.20
10411;DHT22;5251;52.112;8.606;2024-03-23T11:35:32;11.00;91.80
10411;DHT22;5251;52.112;8.606;2024-03-23T11:38:05;10.80;92.30
10411;DHT22;5251;52.112;8.606;2024-03-23T11:40:32;10.60;92.70
10411;DHT22;5251;52.112;8.606;2024-03-23T11:43:05;10.50;93.20
10411;DHT22;5251;52.112;8.606;2024-03-23T11:45:35;10.40;93.10
10411;DHT22;5251;52.112;8.606;2024-03-23T11:48:07;10.40;93.70
10411;DHT22;5251;52.112;8.606;2024-03-23T11:50:35;10.30;94.20
10411;DHT22;5251;52.112;8.606;2024-03-23T11:53:17;10.40;93.50
10411;DHT22;5251;52.112;8.606;2024-03-23T11:55:56;10.40;94.00
10411;DHT22;5251;52.112;8.606;2024-03-23T11:58:23;10.40;94.30
10411;DHT22;5251;52.112;8.606;2024-03-23T12:03:19;10.50;94.60
10411;DHT22;5251;52.112;8.606;2024-03-23T12:05:54;10.50;94.70
10411;DHT22;5251;52.112;8.606;2024-03-23T12:08:25;10.60;94.90
10411;DHT22;5251;52.112;8.606;2024-03-23T12:10:51;10.60;95.10
10411;DHT22;5251;52.112;8.606;2024-03-23T12:13:21;10.70;94.60
10411;DHT22;5251;52.112;8.606;2024-03-23T12:15:50;10.80;94.60
10411;DHT22;5251;52.112;8.606;2024-03-23T12:18:16;10.80;93.50
10411;DHT22;5251;52.112;8.606;2024-03-23T12:20:42;10.90;92.80
10411;DHT22;5251;52.112;8.606;2024-03-23T12:23:10;11.00;93.30
10411;DHT22;5251;52.112;8.606;2024-03-23T12:25:37;11.00;92.60
10411;DHT22;5251;52.112;8.606;2024-03-23T12:28:03;11.10;91.90
10411;DHT22;5251;52.112;8.606;2024-03-23T12:30:40;11.10;91.90
10411;DHT22;5251;52.112;8.606;2024-03-23T12:33:06;11.10;91.20
10411;DHT22;5251;52.112;8.606;2024-03-23T12:35:32;11.10;91.40
10411;DHT22;5251;52.112;8.606;2024-03-23T12:37:57;11.20;91.20
10411;DHT22;5251;52.112;8.606;2024-03-23T12:40:23;11.30;91.20
10411;DHT22;5251;52.112;8.606;2024-03-23T12:42:49;11.30;90.60
10411;DHT22;5251;52.112;8.606;2024-03-23T12:45:14;11.40;91.20
10411;DHT22;5251;52.112;8.606;2024-03-23T12:47:40;11.40;91.90
10411;DHT22;5251;52.112;8.606;2024-03-23T12:50:06;11.40;92.50
10411;DHT22;5251;52.112;8.606;2024-03-23T12:52:33;11.30;93.30
10411;DHT22;5251;52.112;8.606;2024-03-23T12:54:58;11.30;93.90
10411;DHT22;5251;52.112;8.606;2024-03-23T12:57:25;11.20;93.90
10411;DHT22;5251;52.112;8.606;2024-03-23T12:59:52;11.20;94.10
10411;DHT22;5251;52.112;8.606;2024-03-23T13:02:21;11.20;95.20
10411;DHT22;5251;52.112;8.606;2024-03-23T13:04:50;11.10;95.00
10411;DHT22;5251;52.112;8.606;2024-03-23T13:07:19;11.10;95.20
10411;DHT22;5251;52.112;8.606;2024-03-23T13:09:45;11.10;95.70
10411;DHT22;5251;52.112;8.606;2024-03-23T13:12:11;11.10;95.50
10411;DHT22;5251;52.112;8.606;2024-03-23T13:14:40;11.20;95.20
10411;DHT22;5251;52.112;8.606;2024-03-23T13:17:06;11.20;94.50
10411;DHT22;5251;52.112;8.606;2024-03-23T13:19:32;11.20;93.20
10411;DHT22;5251;52.112;8.606;2024-03-23T13:21:58;11.20;92.50
10411;DHT22;5251;52.112;8.606;2024-03-23T13:24:25;11.00;92.20
10411;DHT22;5251;52.112;8.606;2024-03-23T13:26:52;10.90;91.80
10411;DHT22;5251;52.112;8.606;2024-03-23T13:29:19;10.60;92.10
10411;DHT22;5251;52.112;8.606;2024-03-23T13:31:45;10.40;92.00
10411;DHT22;5251;52.112;8.606;2024-03-23T13:34:12;10.20;92.30
10411;DHT22;5251;52.112;8.606;2024-03-23T13:36:43;10.00;92.60
10411;DHT22;5251;52.112;8.606;2024-03-23T13:39:10;9.80;93.60
10411;DHT22;5251;52.112;8.606;2024-03-23T13:41:45;9.70;94.50
10411;DHT22;5251;52.112;8.606;2024-03-23T13:44:12;9.60;95.10
10411;DHT22;5251;52.112;8.606;2024-03-23T13:46:40;9.50;95.80
10411;DHT22;5251;52.112;8.606;2024-03-23T13:49:06;9.50;96.50
10411;DHT22;5251;52.112;8.606;2024-03-23T13:51:32;9.50;96.30
10411;DHT22;5251;52.112;8.606;2024-03-23T13:53:58;9.60;96.60
10411;DHT22;5251;52.112;8.606;2024-03-23T13:56:27;9.60;96.40
10411;DHT22;5251;52.112;8.606;2024-03-23T13:58:57;9.70;96.80
10411;DHT22;5251;52.112;8.606;2024-03-23T14:01:23;9.70;96.60
10411;DHT22;5251;52.112;8.606;2024-03-23T14:03:49;9.80;96.90
10411;DHT22;5251;52.112;8.606;2024-03-23T14:06:15;9.80;96.90
10411;DHT22;5251;52.112;8.606;2024-03-23T14:08:41;9.80;97.30
10411;DHT22;5251;52.112;8.606;2024-03-23T14:11:07;9.90;97.80
10411;DHT22;5251;52.112;8.606;2024-03-23T14:13:37;9.90;97.30
10411;DHT22;5251;52.112;8.606;2024-03-23T14:16:03;9.90;97.10
10411;DHT22;5251;52.112;8.606;2024-03-23T14:18:29;9.90;97.00
10411;DHT22;5251;52.112;8.606;2024-03-23T14:20:57;9.90;96.60
10411;DHT22;5251;52.112;8.606;2024-03-23T14:23:25;9.90;96.30
10411;DHT22;5251;52.112;8.606;2024-03-23T14:26:01;10.00;95.60
10411;DHT22;5251;52.112;8.606;2024-03-23T14:28:27;10.00;95.10
10411;DHT22;5251;52.112;8.606;2024-03-23T14:30:55;10.00;95.30
10411;DHT22;5251;52.112;8.606;2024-03-23T14:33:21;10.00;94.40
10411;DHT22;5251;52.112;8.606;2024-03-23T14:35:56;10.00;94.40
10411;DHT22;5251;52.112;8.606;2024-03-23T14:38:23;10.00;94.00
10411;DHT22;5251;52.112;8.606;2024-03-23T14:40:49;9.90;94.90
10411;DHT22;5251;52.112;8.606;2024-03-23T14:43:15;9.80;95.40
10411;DHT22;5251;52.112;8.606;2024-03-23T14:46:15;9.80;95.50
10411;DHT22;5251;52.112;8.606;2024-03-23T14:48:44;9.70;95.50
10411;DHT22;5251;52.112;8.606;2024-03-23T14:51:12;9.70;95.60
10411;DHT22;5251;52.112;8.606;2024-03-23T14:53:39;9.70;96.20
10411;DHT22;5251;52.112;8.606;2024-03-23T14:56:08;9.70;96.20
10411;DHT22;5251;52.112;8.606;2024-03-23T14:58:35;9.70;95.60
10411;DHT22;5251;52.112;8.606;2024-03-23T15:01:05;9.70;95.20
10411;DHT22;5251;52.112;8.606;2024-03-23T15:03:34;9.70;95.40
10411;DHT22;5251;52.112;8.606;2024-03-23T15:06:00;9.70;94.40
10411;DHT22;5251;52.112;8.606;2024-03-23T15:08:26;9.70;93.90
10411;DHT22;5251;52.112;8.606;2024-03-23T15:10:53;9.70;93.60
10411;DHT22;5251;52.112;8.606;2024-03-23T15:13:19;9.60;93.70
10411;DHT22;5251;52.112;8.606;2024-03-23T15:15:48;9.60;93.70
10411;DHT22;5251;52.112;8.606;2024-03-23T15:18:14;9.50;94.30
10411;DHT22;5251;52.112;8.606;2024-03-23T15:20:55;9.50;94.50
10411;DHT22;5251;52.112;8.606;2024-03-23T15:23:21;9.50;95.20
10411;DHT22;5251;52.112;8.606;2024-03-23T15:25:54;9.50;95.20
10411;DHT22;5251;52.112;8.606;2024-03-23T15:28:20;9.50;95.80
10411;DHT22;5251;52.112;8.606;2024-03-23T15:30:45;9.50;95.80
10411;DHT22;5251;52.112;8.606;2024-03-23T15:33:11;9.50;96.20
10411;DHT22;5251;52.112;8.606;2024-03-23T15:35:37;9.50;96.40
10411;DHT22;5251;52.112;8.606;2024-03-23T15:38:02;9.60;96.80
10411;DHT22;5251;52.112;8.606;2024-03-23T15:40:29;9.70;96.70
10411;DHT22;5251;52.112;8.606;2024-03-23T15:42:54;9.80;96.50
10411;DHT22;5251;52.112;8.606;2024-03-23T15:45:20;9.90;95.80
10411;DHT22;5251;52.112;8.606;2024-03-23T15:47:45;10.00;95.50
10411;DHT22;5251;52.112;8.606;2024-03-23T15:50:11;10.00;95.60
10411;DHT22;5251;52.112;8.606;2024-03-23T15:52:37;10.10;95.10
10411;DHT22;5251;52.112;8.606;2024-03-23T15:55:06;10.20;95.20
10411;DHT22;5251;52.112;8.606;2024-03-23T15:57:35;10.20;95.00
10411;DHT22;5251;52.112;8.606;2024-03-23T16:00:02;10.30;95.60
10411;DHT22;5251;52.112;8.606;2024-03-23T16:02:28;10.30;95.90
10411;DHT22;5251;52.112;8.606;2024-03-23T16:04:54;10.40;95.90
10411;DHT22;5251;52.112;8.606;2024-03-23T16:07:20;10.40;95.70
10411;DHT22;5251;52.112;8.606;2024-03-23T16:09:46;10.50;95.10
10411;DHT22;5251;52.112;8.606;2024-03-23T16:12:11;10.50;94.60
10411;DHT22;5251;52.112;8.606;2024-03-23T16:14:37;10.60;95.00
10411;DHT22;5251;52.112;8.606;2024-03-23T16:17:03;10.70;95.60
10411;DHT22;5251;52.112;8.606;2024-03-23T16:19:28;10.80;95.90
10411;DHT22;5251;52.112;8.606;2024-03-23T16:21:54;10.90;95.70
10411;DHT22;5251;52.112;8.606;2024-03-23T16:24:21;11.00;96.00
10411;DHT22;5251;52.112;8.606;2024-03-23T16:26:46;11.00;95.90
10411;DHT22;5251;52.112;8.606;2024-03-23T16:29:12;11.10;95.60
10411;DHT22;5251;52.112;8.606;2024-03-23T16:31:38;11.10;95.10
10411;DHT22;5251;52.112;8.606;2024-03-23T16:34:03;11.10;94.50
10411;DHT22;5251;52.112;8.606;2024-03-23T16:36:29;11.10;94.70
10411;DHT22;5251;52.112;8.606;2024-03-23T16:38:55;11.00;94.00
10411;DHT22;5251;52.112;8.606;2024-03-23T16:41:21;11.00;93.80
10411;DHT22;5251;52.112;8.606;2024-03-23T16:43:46;10.90;93.40
10411;DHT22;5251;52.112;8.606;2024-03-23T16:46:13;10.80;92.30
10411;DHT22;5251;52.112;8.606;2024-03-23T16:48:43;10.60;91.50
10411;DHT22;5251;52.112;8.606;2024-03-23T16:51:10;10.40;92.10
10411;DHT22;5251;52.112;8.606;2024-03-23T16:53:37;10.20;92.00